createdAt,value
2018-09-26T00:00:45.393Z,8.68
2018-09-26T00:03:18.807Z,8.67
2018-09-26T00:05:48.572Z,8.59
2018-09-26T00:08:17.880Z,8.56
2018-09-26T00:10:47.255Z,8.50
2018-09-26T00:13:16.432Z,8.51
2018-09-26T00:15:45.833Z,8.48
2018-09-26T00:18:14.820Z,8.47
2018-09-26T00:20:43.816Z,8.41
2018-09-26T00:23:12.738Z,8.37
2018-09-26T00:25:41.644Z,8.36
2018-09-26T00:28:10.474Z,8.43
2018-09-26T00:30:39.441Z,8.48
2018-09-26T00:33:08.454Z,8.45
2018-09-26T00:35:37.334Z,8.42
2018-09-26T00:38:06.253Z,8.39
2018-09-26T00:40:35.124Z,8.25
2018-09-26T00:43:04.095Z,8.18
2018-09-26T00:45:32.973Z,8.18
2018-09-26T00:48:01.833Z,8.18
2018-09-26T00:50:30.792Z,8.15
2018-09-26T00:52:59.599Z,8.15
2018-09-26T00:55:28.423Z,8.15
2018-09-26T00:57:57.425Z,8.13
2018-09-26T01:00:26.287Z,8.17
2018-09-26T01:02:55.324Z,8.18
2018-09-26T01:05:24.124Z,8.19
2018-09-26T01:07:53.122Z,8.16
2018-09-26T01:10:22.032Z,8.16
2018-09-26T01:12:51.021Z,8.21
2018-09-26T01:15:19.847Z,8.13
2018-09-26T01:17:48.662Z,8.09
2018-09-26T01:20:17.457Z,8.04
2018-09-26T01:22:46.409Z,8.00
2018-09-26T01:25:15.347Z,7.94
2018-09-26T01:27:44.222Z,7.95
2018-09-26T01:30:13.178Z,7.88
2018-09-26T01:32:41.981Z,7.83
2018-09-26T01:35:10.771Z,7.79
2018-09-26T01:37:39.649Z,7.77
2018-09-26T01:40:08.594Z,7.73
2018-09-26T01:42:37.452Z,7.68
2018-09-26T01:45:06.868Z,7.64
2018-09-26T01:47:35.809Z,7.63
2018-09-26T01:50:04.773Z,7.53
2018-09-26T01:52:33.690Z,7.51
2018-09-26T01:55:02.513Z,7.48
2018-09-26T01:57:31.397Z,7.42
2018-09-26T02:00:00.188Z,7.34
2018-09-26T02:02:29.056Z,7.31
2018-09-26T02:04:57.856Z,7.28
2018-09-26T02:07:26.689Z,7.24
2018-09-26T02:09:55.503Z,7.18
2018-09-26T02:12:24.420Z,7.17
2018-09-26T02:14:53.545Z,7.17
2018-09-26T02:17:22.490Z,7.15
2018-09-26T02:19:51.288Z,7.10
2018-09-26T02:22:20.108Z,7.11
2018-09-26T02:24:49.031Z,7.22
2018-09-26T02:27:17.936Z,7.20
2018-09-26T02:29:46.705Z,7.24
2018-09-26T02:32:15.623Z,7.25
2018-09-26T02:34:44.440Z,7.26
2018-09-26T02:37:13.228Z,7.24
2018-09-26T02:39:42.011Z,7.17
2018-09-26T02:42:10.809Z,7.13
2018-09-26T02:44:39.664Z,7.18
2018-09-26T02:47:08.546Z,7.22
2018-09-26T02:49:37.364Z,7.31
2018-09-26T02:52:06.236Z,7.27
2018-09-26T02:54:35.028Z,7.16
2018-09-26T02:57:03.857Z,7.10
2018-09-26T02:59:32.741Z,7.09
2018-09-26T03:02:01.662Z,7.09
2018-09-26T03:04:30.557Z,7.09
2018-09-26T03:06:59.415Z,7.14
2018-09-26T03:09:28.239Z,7.18
2018-09-26T03:11:57.299Z,7.20
2018-09-26T03:14:26.206Z,7.20
2018-09-26T03:16:55.062Z,7.19
2018-09-26T03:19:24.010Z,7.25
2018-09-26T03:21:52.923Z,7.30
2018-09-26T03:24:21.735Z,7.26
2018-09-26T03:26:50.625Z,7.21
2018-09-26T03:29:19.503Z,7.19
2018-09-26T03:31:48.425Z,7.19
2018-09-26T03:34:17.284Z,7.18
2018-09-26T03:36:46.133Z,7.16
2018-09-26T03:39:15.074Z,7.18
2018-09-26T03:41:44.095Z,7.12
2018-09-26T03:44:12.964Z,7.13
2018-09-26T03:46:41.958Z,7.18
2018-09-26T03:49:10.732Z,7.14
2018-09-26T03:51:39.604Z,7.08
2018-09-26T03:54:08.549Z,7.04
2018-09-26T03:56:37.381Z,7.02
2018-09-26T03:59:06.631Z,7.02
2018-09-26T04:01:35.480Z,6.99
2018-09-26T04:04:04.329Z,7.01
2018-09-26T04:06:39.733Z,7.00
2018-09-26T04:09:09.459Z,6.99
2018-09-26T04:11:38.571Z,7.01
2018-09-26T04:14:07.455Z,6.97
2018-09-26T04:16:36.270Z,6.96
2018-09-26T04:19:05.057Z,6.93
2018-09-26T04:21:33.924Z,6.94
2018-09-26T04:24:02.795Z,6.94
2018-09-26T04:26:32.640Z,7.01
2018-09-26T04:29:01.488Z,7.01
2018-09-26T04:31:30.313Z,7.08
2018-09-26T04:33:59.242Z,7.14
2018-09-26T04:36:28.285Z,7.28
2018-09-26T04:38:57.253Z,7.39
2018-09-26T04:41:26.172Z,7.45
2018-09-26T04:43:55.098Z,7.52
2018-09-26T04:46:23.945Z,7.57
2018-09-26T04:48:53.060Z,7.52
2018-09-26T04:51:21.953Z,7.58
2018-09-26T04:53:51.317Z,7.63
2018-09-26T04:56:20.318Z,7.61
2018-09-26T04:58:49.292Z,7.66
2018-09-26T05:01:18.111Z,7.69
2018-09-26T05:03:46.968Z,7.65
2018-09-26T05:06:15.785Z,7.64
2018-09-26T05:08:44.594Z,7.62
2018-09-26T05:11:13.483Z,7.63
2018-09-26T05:13:42.319Z,7.62
2018-09-26T05:16:11.117Z,7.66
2018-09-26T05:18:39.945Z,7.69
2018-09-26T05:21:09.304Z,7.73
2018-09-26T05:23:38.205Z,7.75
2018-09-26T05:26:07.157Z,7.90
2018-09-26T05:28:36.072Z,7.97
2018-09-26T05:31:04.919Z,8.11
2018-09-26T05:33:33.751Z,8.12
2018-09-26T05:36:02.632Z,8.10
2018-09-26T05:38:31.489Z,8.18
2018-09-26T05:41:00.492Z,8.21
2018-09-26T05:43:29.317Z,8.22
2018-09-26T05:45:58.111Z,8.23
2018-09-26T05:48:26.926Z,8.17
2018-09-26T05:50:55.966Z,8.17
2018-09-26T05:53:24.928Z,8.33
2018-09-26T05:55:53.929Z,8.41
2018-09-26T05:58:22.757Z,8.56
2018-09-26T06:00:51.555Z,8.56
2018-09-26T06:03:20.373Z,8.67
2018-09-26T06:05:49.149Z,8.62
2018-09-26T06:08:18.093Z,8.63
2018-09-26T06:10:46.977Z,8.59
2018-09-26T06:13:16.260Z,8.68
2018-09-26T06:15:45.245Z,8.72
2018-09-26T06:18:14.074Z,8.70
2018-09-26T06:20:42.889Z,8.70
2018-09-26T06:23:11.764Z,8.70
2018-09-26T06:25:40.661Z,8.64
2018-09-26T06:28:09.467Z,8.38
2018-09-26T06:30:38.433Z,8.44
2018-09-26T06:33:07.460Z,8.44
2018-09-26T06:35:36.345Z,8.43
2018-09-26T06:38:05.192Z,8.41
2018-09-26T06:40:34.181Z,8.49
2018-09-26T06:43:03.180Z,8.62
2018-09-26T06:45:32.092Z,8.57
2018-09-26T06:48:00.944Z,8.36
2018-09-26T06:50:29.856Z,8.44
2018-09-26T06:52:58.636Z,8.62
2018-09-26T06:55:27.439Z,8.74
2018-09-26T06:57:56.392Z,8.79
2018-09-26T07:00:25.809Z,8.94
2018-09-26T07:02:54.830Z,9.11
2018-09-26T07:05:25.433Z,9.28
2018-09-26T07:07:54.208Z,9.27
2018-09-26T07:10:23.194Z,9.10
2018-09-26T07:12:52.316Z,9.24
2018-09-26T07:15:21.286Z,9.34
2018-09-26T07:17:50.156Z,9.39
2018-09-26T07:20:19.076Z,9.30
2018-09-26T07:22:48.266Z,9.47
2018-09-26T07:25:17.889Z,9.58
2018-09-26T07:27:46.747Z,9.77
2018-09-26T07:30:17.249Z,9.89
2018-09-26T07:32:46.068Z,9.61
2018-09-26T07:35:14.908Z,9.39
2018-09-26T07:37:43.840Z,9.61
2018-09-26T07:40:12.884Z,9.80
2018-09-26T07:42:41.947Z,10.01
2018-09-26T07:45:10.777Z,10.15
2018-09-26T07:47:39.585Z,10.16
2018-09-26T07:50:08.568Z,10.24
2018-09-26T07:52:37.453Z,10.26
2018-09-26T07:55:06.311Z,10.31
2018-09-26T07:57:36.195Z,10.43
2018-09-26T08:00:08.257Z,10.36
2018-09-26T08:02:37.321Z,10.47
2018-09-26T08:05:06.823Z,10.63
2018-09-26T08:07:35.723Z,10.70
2018-09-26T08:10:04.556Z,10.62
2018-09-26T08:12:33.601Z,10.50
2018-09-26T08:15:02.486Z,10.49
2018-09-26T08:17:31.372Z,10.58
2018-09-26T08:20:00.310Z,10.76
2018-09-26T08:22:29.224Z,10.76
2018-09-26T08:24:58.124Z,10.76
2018-09-26T08:27:27.072Z,11.00
2018-09-26T08:29:55.953Z,11.21
2018-09-26T08:32:25.055Z,11.23
2018-09-26T08:34:54.016Z,11.43
2018-09-26T08:37:22.919Z,11.67
2018-09-26T08:39:51.940Z,11.81
2018-09-26T08:42:20.787Z,11.89
2018-09-26T08:44:49.644Z,12.10
2018-09-26T08:47:18.569Z,12.13
2018-09-26T08:49:47.581Z,12.21
2018-09-26T08:52:16.836Z,12.30
2018-09-26T08:54:45.760Z,12.61
2018-09-26T08:57:14.685Z,12.75
2018-09-26T08:59:43.661Z,12.74
2018-09-26T09:02:12.628Z,12.91
2018-09-26T09:04:41.847Z,12.83
2018-09-26T09:07:10.668Z,12.57
2018-09-26T09:09:39.657Z,12.40
2018-09-26T09:12:08.664Z,12.53
2018-09-26T09:14:37.782Z,12.23
2018-09-26T09:17:07.323Z,12.10
2018-09-26T09:19:36.135Z,11.71
2018-09-26T09:22:05.111Z,11.84
2018-09-26T09:24:33.987Z,11.69
2018-09-26T09:27:03.142Z,11.44
2018-09-26T09:29:32.329Z,11.43
2018-09-26T09:32:01.164Z,11.20
2018-09-26T09:34:30.053Z,11.23
2018-09-26T09:36:58.856Z,11.41
2018-09-26T09:39:27.861Z,11.40
2018-09-26T09:41:56.781Z,11.65
2018-09-26T09:44:25.738Z,11.62
2018-09-26T09:46:54.827Z,11.77
2018-09-26T09:49:23.883Z,11.64
2018-09-26T09:51:52.750Z,11.42
2018-09-26T09:54:21.665Z,11.49
2018-09-26T09:56:50.598Z,11.49
2018-09-26T09:59:19.484Z,11.67
2018-09-26T10:01:48.307Z,11.48
2018-09-26T10:04:17.137Z,11.75
2018-09-26T10:06:45.986Z,11.85
2018-09-26T10:09:14.823Z,11.83
2018-09-26T10:11:43.758Z,11.81
2018-09-26T10:14:12.611Z,11.91
2018-09-26T10:16:41.508Z,11.91
2018-09-26T10:19:10.313Z,12.19
2018-09-26T10:21:39.100Z,12.17
2018-09-26T10:24:07.686Z,12.28
2018-09-26T10:26:36.593Z,12.23
2018-09-26T10:29:05.483Z,12.22
2018-09-26T10:31:34.363Z,12.17
2018-09-26T10:34:03.123Z,12.03
2018-09-26T10:36:32.028Z,12.02
2018-09-26T10:39:00.989Z,12.10
2018-09-26T10:41:29.876Z,11.91
2018-09-26T10:43:59.362Z,11.88
2018-09-26T10:46:28.454Z,12.13
2018-09-26T10:48:57.557Z,12.43
2018-09-26T10:51:26.400Z,12.36
2018-09-26T10:53:55.309Z,12.28
2018-09-26T10:56:24.350Z,12.50
2018-09-26T10:58:53.337Z,12.50
2018-09-26T11:01:22.167Z,12.69
2018-09-26T11:03:50.960Z,12.86
2018-09-26T11:06:19.815Z,12.57
2018-09-26T11:08:48.876Z,12.86
2018-09-26T11:11:17.768Z,13.02
2018-09-26T11:13:46.767Z,12.63
2018-09-26T11:16:15.606Z,12.41
2018-09-26T11:18:44.533Z,12.11
2018-09-26T11:21:13.646Z,11.91
2018-09-26T11:23:42.720Z,11.95
2018-09-26T11:26:11.551Z,11.98
2018-09-26T11:28:40.512Z,12.03
2018-09-26T11:31:09.601Z,12.11
2018-09-26T11:33:38.519Z,12.26
2018-09-26T11:36:07.451Z,12.10
2018-09-26T11:38:36.388Z,11.99
2018-09-26T11:41:05.320Z,12.08
2018-09-26T11:43:34.141Z,12.17
2018-09-26T11:46:02.954Z,12.05
2018-09-26T11:48:31.832Z,12.14
2018-09-26T11:51:00.743Z,12.32
2018-09-26T11:53:29.712Z,12.36
2018-09-26T11:55:58.614Z,12.24
2018-09-26T11:58:27.658Z,12.23
2018-09-26T12:00:56.714Z,12.36
2018-09-26T12:03:25.524Z,12.44
2018-09-26T12:05:54.449Z,12.74
2018-09-26T12:08:23.439Z,12.78
2018-09-26T12:10:52.441Z,12.88
2018-09-26T12:13:21.260Z,13.08
2018-09-26T12:15:50.148Z,12.34
2018-09-26T12:18:19.153Z,12.24
2018-09-26T12:20:48.239Z,12.59
2018-09-26T12:23:17.044Z,12.83
2018-09-26T12:25:45.981Z,12.87
2018-09-26T12:28:14.815Z,12.69
2018-09-26T12:30:43.828Z,12.72
2018-09-26T12:33:12.817Z,12.29
2018-09-26T12:35:41.793Z,11.98
2018-09-26T12:38:10.638Z,12.12
2018-09-26T12:40:39.491Z,12.05
2018-09-26T12:43:08.500Z,12.07
2018-09-26T12:45:37.366Z,12.18
2018-09-26T12:48:06.707Z,12.39
2018-09-26T12:50:35.894Z,12.60
2018-09-26T12:53:04.793Z,12.39
2018-09-26T12:55:33.678Z,12.07
2018-09-26T12:58:02.554Z,11.85
2018-09-26T13:00:31.946Z,11.77
2018-09-26T13:03:01.153Z,11.80
2018-09-26T13:05:30.055Z,12.00
2018-09-26T13:07:58.889Z,12.02
2018-09-26T13:10:27.746Z,11.93
2018-09-26T13:12:56.718Z,12.03
2018-09-26T13:15:25.542Z,12.14
2018-09-26T13:17:54.356Z,12.15
2018-09-26T13:20:23.699Z,12.22
2018-09-26T13:22:52.699Z,11.96
2018-09-26T13:25:21.805Z,11.95
2018-09-26T13:27:50.891Z,12.05
2018-09-26T13:30:19.747Z,12.09
2018-09-26T13:32:48.872Z,12.24
2018-09-26T13:35:17.689Z,12.28
2018-09-26T13:37:46.580Z,12.34
2018-09-26T13:40:15.528Z,12.22
2018-09-26T13:42:44.689Z,12.32
2018-09-26T13:45:13.634Z,12.19
2018-09-26T13:47:42.587Z,12.22
2018-09-26T13:50:11.537Z,12.07
2018-09-26T13:52:40.576Z,12.08
2018-09-26T13:55:09.345Z,12.02
2018-09-26T13:57:38.250Z,11.97
2018-09-26T14:00:07.861Z,12.10
2018-09-26T14:02:36.942Z,12.22
2018-09-26T14:05:06.253Z,12.40
2018-09-26T14:07:35.096Z,12.39
2018-09-26T14:10:03.962Z,12.32
2018-09-26T14:12:32.847Z,12.29
2018-09-26T14:15:01.835Z,12.24
2018-09-26T14:17:30.682Z,12.15
2018-09-26T14:19:59.480Z,12.24
2018-09-26T14:22:28.574Z,12.16
2018-09-26T14:24:57.563Z,12.06
2018-09-26T14:27:26.467Z,11.82
2018-09-26T14:29:55.545Z,11.83
2018-09-26T14:32:24.495Z,11.85
2018-09-26T14:34:53.509Z,11.70
2018-09-26T14:37:22.279Z,11.75
2018-09-26T14:39:51.184Z,11.86
2018-09-26T14:42:20.049Z,11.83
2018-09-26T14:44:48.873Z,11.91
2018-09-26T14:47:17.765Z,11.94
2018-09-26T14:49:46.727Z,11.77
2018-09-26T14:52:15.607Z,11.65
2018-09-26T14:54:44.423Z,11.53
2018-09-26T14:57:13.316Z,11.54
2018-09-26T14:59:42.525Z,11.42
2018-09-26T15:02:11.472Z,11.38
2018-09-26T15:04:40.674Z,11.32
2018-09-26T15:07:09.723Z,11.35
2018-09-26T15:09:38.652Z,11.28
2018-09-26T15:12:07.714Z,11.22
2018-09-26T15:14:36.820Z,11.25
2018-09-26T15:17:06.021Z,11.23
2018-09-26T15:19:34.800Z,11.15
2018-09-26T15:22:03.584Z,11.18
2018-09-26T15:24:32.446Z,11.18
2018-09-26T15:27:01.391Z,11.21
2018-09-26T15:29:30.320Z,11.28
2018-09-26T15:31:59.092Z,11.20
2018-09-26T15:34:27.969Z,11.13
2018-09-26T15:36:56.795Z,11.13
2018-09-26T15:39:25.539Z,11.17
2018-09-26T15:41:54.357Z,11.08
2018-09-26T15:44:23.355Z,11.10
2018-09-26T15:46:52.345Z,11.13
2018-09-26T15:49:21.161Z,11.09
2018-09-26T15:51:50.012Z,11.09
2018-09-26T15:54:18.825Z,10.98
2018-09-26T15:56:47.869Z,10.93
2018-09-26T15:59:16.663Z,10.93
2018-09-26T16:01:45.537Z,10.80
2018-09-26T16:04:15.754Z,10.84
2018-09-26T16:06:45.605Z,10.90
2018-09-26T16:09:17.280Z,10.88
2018-09-26T16:11:46.104Z,10.84
2018-09-26T16:14:15.047Z,10.83
2018-09-26T16:16:44.073Z,10.77
2018-09-26T16:19:12.997Z,10.75
2018-09-26T16:21:42.084Z,10.74
2018-09-26T16:24:11.022Z,10.67
2018-09-26T16:26:40.096Z,10.64
2018-09-26T16:29:09.043Z,10.64
2018-09-26T16:31:37.966Z,10.61
2018-09-26T16:34:07.028Z,10.52
2018-09-26T16:36:35.890Z,10.51
2018-09-26T16:39:06.593Z,10.42
2018-09-26T16:41:36.547Z,10.43
2018-09-26T16:44:05.511Z,10.34
2018-09-26T16:46:34.717Z,10.31
2018-09-26T16:49:03.603Z,10.29
2018-09-26T16:51:32.408Z,10.25
2018-09-26T16:54:01.227Z,10.25
2018-09-26T16:56:30.144Z,10.19
2018-09-26T16:58:59.441Z,10.22
2018-09-26T17:01:28.315Z,10.19
2018-09-26T17:03:57.116Z,10.16
2018-09-26T17:06:25.970Z,10.15
2018-09-26T17:08:55.010Z,10.15
2018-09-26T17:11:23.856Z,10.18
2018-09-26T17:13:52.906Z,10.19
2018-09-26T17:16:21.967Z,10.18
2018-09-26T17:18:50.881Z,10.11
2018-09-26T17:21:19.864Z,10.07
2018-09-26T17:23:48.958Z,10.06
2018-09-26T17:26:17.996Z,10.10
2018-09-26T17:28:47.086Z,10.07
2018-09-26T17:31:16.138Z,10.06
2018-09-26T17:33:45.085Z,10.03
2018-09-26T17:36:13.957Z,10.04
2018-09-26T17:38:43.266Z,10.02
2018-09-26T17:41:12.068Z,9.99
2018-09-26T17:43:40.956Z,9.93
2018-09-26T17:46:09.997Z,9.93
2018-09-26T17:48:38.913Z,9.86
2018-09-26T17:51:07.796Z,9.82
2018-09-26T17:53:37.204Z,9.79
2018-09-26T17:56:05.987Z,9.79
2018-09-26T17:58:34.978Z,9.79
2018-09-26T18:01:03.808Z,9.78
2018-09-26T18:03:32.557Z,9.76
2018-09-26T18:06:01.430Z,9.75
2018-09-26T18:08:30.369Z,9.73
2018-09-26T18:10:59.369Z,9.73
2018-09-26T18:13:28.317Z,9.70
2018-09-26T18:15:57.445Z,9.67
2018-09-26T18:18:33.041Z,9.66
2018-09-26T18:21:01.876Z,9.63
2018-09-26T18:23:30.749Z,9.59
2018-09-26T18:25:59.610Z,9.59
2018-09-26T18:28:28.466Z,9.60
2018-09-26T18:30:57.353Z,9.56
2018-09-26T18:33:26.143Z,9.51
2018-09-26T18:35:55.015Z,9.46
2018-09-26T18:38:23.859Z,9.42
2018-09-26T18:40:52.705Z,9.43
2018-09-26T18:43:21.472Z,9.43
2018-09-26T18:45:50.764Z,9.42
2018-09-26T18:48:19.737Z,9.39
2018-09-26T18:50:48.568Z,9.38
2018-09-26T18:53:17.359Z,9.35
2018-09-26T18:55:46.526Z,9.32
2018-09-26T18:58:15.316Z,9.31
2018-09-26T19:00:44.238Z,9.34
2018-09-26T19:03:13.709Z,9.32
2018-09-26T19:05:42.537Z,9.32
2018-09-26T19:08:11.430Z,9.32
2018-09-26T19:10:40.283Z,9.33
2018-09-26T19:13:09.170Z,9.33
2018-09-26T19:15:38.062Z,9.28
2018-09-26T19:18:06.898Z,9.26
2018-09-26T19:20:35.748Z,9.25
2018-09-26T19:23:04.584Z,9.23
2018-09-26T19:25:33.364Z,9.13
2018-09-26T19:28:02.221Z,9.13
2018-09-26T19:30:31.282Z,9.13
2018-09-26T19:33:00.239Z,9.11
2018-09-26T19:35:29.103Z,9.10
2018-09-26T19:37:57.985Z,9.04
2018-09-26T19:40:26.915Z,8.99
2018-09-26T19:42:55.773Z,9.03
2018-09-26T19:45:24.667Z,8.98
2018-09-26T19:47:53.821Z,8.88
2018-09-26T19:50:22.648Z,8.93
2018-09-26T19:52:51.839Z,8.94
2018-09-26T19:55:20.649Z,9.00
2018-09-26T19:57:49.760Z,9.01
2018-09-26T20:00:18.568Z,9.02
2018-09-26T20:02:47.453Z,9.04
2018-09-26T20:05:16.434Z,8.98
2018-09-26T20:07:45.257Z,8.95
2018-09-26T20:10:14.075Z,8.87
2018-09-26T20:12:43.174Z,8.78
2018-09-26T20:15:12.084Z,8.76
2018-09-26T20:17:40.941Z,8.72
2018-09-26T20:20:09.887Z,8.72
2018-09-26T20:22:38.717Z,8.73
2018-09-26T20:25:07.726Z,8.70
2018-09-26T20:27:36.801Z,8.63
2018-09-26T20:30:07.164Z,8.63
2018-09-26T20:32:35.928Z,8.61
2018-09-26T20:35:05.054Z,8.63
2018-09-26T20:37:34.123Z,8.63
2018-09-26T20:40:02.965Z,8.64
2018-09-26T20:42:31.825Z,8.62
2018-09-26T20:45:00.949Z,8.55
2018-09-26T20:47:30.067Z,8.47
2018-09-26T20:49:58.865Z,8.42
2018-09-26T20:52:27.654Z,8.41
2018-09-26T20:54:56.495Z,8.38
2018-09-26T20:57:25.300Z,8.38
2018-09-26T20:59:54.173Z,8.41
2018-09-26T21:02:23.084Z,8.38
2018-09-26T21:04:51.904Z,8.39
2018-09-26T21:07:20.766Z,8.42
2018-09-26T21:09:49.575Z,8.42
2018-09-26T21:12:18.402Z,8.45
2018-09-26T21:14:47.266Z,8.42
2018-09-26T21:17:16.205Z,8.38
2018-09-26T21:19:45.129Z,8.32
2018-09-26T21:22:14.063Z,8.25
2018-09-26T21:24:42.876Z,8.22
2018-09-26T21:27:11.715Z,8.21
2018-09-26T21:29:40.483Z,8.10
2018-09-26T21:32:09.299Z,8.06
2018-09-26T21:34:38.192Z,8.00
2018-09-26T21:37:06.971Z,7.92
2018-09-26T21:39:36.044Z,7.86
2018-09-26T21:42:04.935Z,7.84
2018-09-26T21:44:33.741Z,7.70
2018-09-26T21:47:02.575Z,7.67
2018-09-26T21:49:31.392Z,7.61
2018-09-26T21:52:00.288Z,7.58
2018-09-26T21:54:29.193Z,7.51
2018-09-26T21:56:58.044Z,7.37
2018-09-26T21:59:26.877Z,7.32
2018-09-26T22:01:55.680Z,7.28
2018-09-26T22:04:24.520Z,7.28
2018-09-26T22:06:53.587Z,7.23
2018-09-26T22:09:22.351Z,7.08
2018-09-26T22:11:51.207Z,7.00
2018-09-26T22:14:20.128Z,7.01
2018-09-26T22:16:48.931Z,6.99
2018-09-26T22:19:17.824Z,7.03
2018-09-26T22:21:53.247Z,7.06
2018-09-26T22:24:22.261Z,7.03
2018-09-26T22:26:51.039Z,7.02
2018-09-26T22:29:19.884Z,6.97
2018-09-26T22:31:48.904Z,6.90
2018-09-26T22:34:17.693Z,6.92
2018-09-26T22:36:46.587Z,6.89
2018-09-26T22:39:15.465Z,6.93
2018-09-26T22:41:44.220Z,6.99
2018-09-26T22:44:13.064Z,7.02
2018-09-26T22:46:41.848Z,6.98
2018-09-26T22:49:10.579Z,6.99
2018-09-26T22:51:39.431Z,7.01
2018-09-26T22:54:08.193Z,7.01
2018-09-26T22:56:36.952Z,6.95
2018-09-26T22:59:05.891Z,6.98
2018-09-26T23:01:34.676Z,6.98
2018-09-26T23:04:03.542Z,6.94
2018-09-26T23:06:32.440Z,6.93
2018-09-26T23:09:01.332Z,6.87
2018-09-26T23:11:30.432Z,6.90
2018-09-26T23:13:59.292Z,6.89
2018-09-26T23:16:28.152Z,6.83
2018-09-26T23:18:57.035Z,6.78
2018-09-26T23:21:25.888Z,6.74
2018-09-26T23:23:54.902Z,6.75
2018-09-26T23:26:23.780Z,6.68
2018-09-26T23:28:52.676Z,6.68
2018-09-26T23:31:21.619Z,6.66
2018-09-26T23:33:50.757Z,6.63
2018-09-26T23:36:19.520Z,6.55
2018-09-26T23:38:48.268Z,6.52
2018-09-26T23:41:17.177Z,6.45
2018-09-26T23:43:45.992Z,6.43
2018-09-26T23:46:14.804Z,6.43
2018-09-26T23:48:43.823Z,6.39
2018-09-26T23:51:12.630Z,6.38
2018-09-26T23:53:41.472Z,6.36
2018-09-26T23:56:10.323Z,6.28
2018-09-26T23:58:39.189Z,6.26
